sensor_id;sensor_type;location;lat;lon;timestamp;temperature;humidity
33699;DHT22;20032;52.436;13.312;2023-04-24T00:00:13;12.60;99.90
33699;DHT22;20032;52.436;13.312;2023-04-24T00:02:40;12.60;99.90
33699;DHT22;20032;52.436;13.312;2023-04-24T00:05:06;12.60;99.90
33699;DHT22;20032;52.436;13.312;2023-04-24T00:07:33;12.50;99.90
33699;DHT22;20032;52.436;13.312;2023-04-24T00:09:59;12.40;99.90
33699;DHT22;20032;52.436;13.312;2023-04-24T00:12:25;12.40;99.90
33699;DHT22;20032;52.436;13.312;2023-04-24T00:14:52;12.40;99.90
33699;DHT22;20032;52.436;13.312;2023-04-24T00:17:18;12.30;99.90
33699;DHT22;20032;52.436;13.312;2023-04-24T00:19:47;12.30;99.90
33699;DHT22;20032;52.436;13.312;2023-04-24T00:22:14;12.20;99.90
33699;DHT22;20032;52.436;13.312;2023-04-24T00:24:40;12.20;99.90
33699;DHT22;20032;52.436;13.312;2023-04-24T00:27:06;12.30;99.90
33699;DHT22;20032;52.436;13.312;2023-04-24T00:29:31;12.20;99.90
33699;DHT22;20032;52.436;13.312;2023-04-24T00:31:57;12.20;99.90
33699;DHT22;20032;52.436;13.312;2023-04-24T00:34:22;12.20;99.90
33699;DHT22;20032;52.436;13.312;2023-04-24T00:36:48;12.20;99.90
33699;DHT22;20032;52.436;13.312;2023-04-24T00:39:18;12.30;99.90
33699;DHT22;20032;52.436;13.312;2023-04-24T00:41:43;12.30;99.90
33699;DHT22;20032;52.436;13.312;2023-04-24T00:44:09;12.30;99.90
33699;DHT22;20032;52.436;13.312;2023-04-24T00:46:35;12.30;99.90
33699;DHT22;20032;52.436;13.312;2023-04-24T00:49:01;12.30;99.90
33699;DHT22;20032;52.436;13.312;2023-04-24T00:51:27;12.30;99.90
33699;DHT22;20032;52.436;13.312;2023-04-24T00:53:53;12.30;99.90
33699;DHT22;20032;52.436;13.312;2023-04-24T00:56:18;12.30;99.90
33699;DHT22;20032;52.436;13.312;2023-04-24T00:58:44;12.30;99.90
33699;DHT22;20032;52.436;13.312;2023-04-24T01:01:10;12.20;99.90
33699;DHT22;20032;52.436;13.312;2023-04-24T01:03:37;12.20;99.90
33699;DHT22;20032;52.436;13.312;2023-04-24T01:06:04;12.20;99.90
33699;DHT22;20032;52.436;13.312;2023-04-24T01:08:30;12.30;99.90
33699;DHT22;20032;52.436;13.312;2023-04-24T01:10:56;12.30;99.90
33699;DHT22;20032;52.436;13.312;2023-04-24T01:13:22;12.20;99.90
33699;DHT22;20032;52.436;13.312;2023-04-24T01:15:48;12.20;99.90
33699;DHT22;20032;52.436;13.312;2023-04-24T01:18:14;12.10;99.90
33699;DHT22;20032;52.436;13.312;2023-04-24T01:20:40;12.10;99.90
33699;DHT22;20032;52.436;13.312;2023-04-24T01:23:07;12.10;99.90
33699;DHT22;20032;52.436;13.312;2023-04-24T01:25:34;12.10;99.90
33699;DHT22;20032;52.436;13.312;2023-04-24T01:28:00;12.20;99.90
33699;DHT22;20032;52.436;13.312;2023-04-24T01:30:27;12.10;99.90
33699;DHT22;20032;52.436;13.312;2023-04-24T01:32:53;12.20;99.90
33699;DHT22;20032;52.436;13.312;2023-04-24T01:35:20;12.20;99.90
33699;DHT22;20032;52.436;13.312;2023-04-24T01:37:45;12.10;99.90
33699;DHT22;20032;52.436;13.312;2023-04-24T01:40:11;12.10;99.90
33699;DHT22;20032;52.436;13.312;2023-04-24T01:42:38;12.10;99.90
33699;DHT22;20032;52.436;13.312;2023-04-24T01:45:06;12.10;99.90
33699;DHT22;20032;52.436;13.312;2023-04-24T01:47:31;12.10;99.90
33699;DHT22;20032;52.436;13.312;2023-04-24T01:49:58;12.10;99.90
33699;DHT22;20032;52.436;13.312;2023-04-24T01:52:23;12.00;99.90
33699;DHT22;20032;52.436;13.312;2023-04-24T01:54:49;12.10;99.90
33699;DHT22;20032;52.436;13.312;2023-04-24T01:57:14;12.10;99.90
33699;DHT22;20032;52.436;13.312;2023-04-24T01:59:41;12.10;99.90
33699;DHT22;20032;52.436;13.312;2023-04-24T02:02:06;11.90;99.90
33699;DHT22;20032;52.436;13.312;2023-04-24T02:04:32;11.90;99.90
33699;DHT22;20032;52.436;13.312;2023-04-24T02:06:57;11.80;99.90
33699;DHT22;20032;52.436;13.312;2023-04-24T02:09:23;11.90;99.90
33699;DHT22;20032;52.436;13.312;2023-04-24T02:11:48;11.90;99.90
33699;DHT22;20032;52.436;13.312;2023-04-24T02:14:14;11.90;99.90
33699;DHT22;20032;52.436;13.312;2023-04-24T02:16:40;11.80;99.90
33699;DHT22;20032;52.436;13.312;2023-04-24T02:19:05;11.90;99.90
33699;DHT22;20032;52.436;13.312;2023-04-24T02:21:31;11.90;99.90
33699;DHT22;20032;52.436;13.312;2023-04-24T02:23:57;11.80;99.90
33699;DHT22;20032;52.436;13.312;2023-04-24T02:26:22;11.80;99.90
33699;DHT22;20032;52.436;13.312;2023-04-24T02:28:48;11.80;99.90
33699;DHT22;20032;52.436;13.312;2023-04-24T02:31:15;11.80;99.90
33699;DHT22;20032;52.436;13.312;2023-04-24T02:33:40;11.70;99.90
33699;DHT22;20032;52.436;13.312;2023-04-24T02:36:06;11.70;99.90
33699;DHT22;20032;52.436;13.312;2023-04-24T02:38:33;11.70;99.90
33699;DHT22;20032;52.436;13.312;2023-04-24T02:40:59;11.60;99.90
33699;DHT22;20032;52.436;13.312;2023-04-24T02:43:25;11.60;99.90
33699;DHT22;20032;52.436;13.312;2023-04-24T02:45:51;11.60;99.90
33699;DHT22;20032;52.436;13.312;2023-04-24T02:48:16;11.50;99.90
33699;DHT22;20032;52.436;13.312;2023-04-24T02:50:42;11.60;99.90
33699;DHT22;20032;52.436;13.312;2023-04-24T02:53:07;11.50;99.90
33699;DHT22;20032;52.436;13.312;2023-04-24T02:55:33;11.60;99.90
33699;DHT22;20032;52.436;13.312;2023-04-24T02:57:58;11.60;99.90
33699;DHT22;20032;52.436;13.312;2023-04-24T03:00:24;11.60;99.90
33699;DHT22;20032;52.436;13.312;2023-04-24T03:02:50;11.70;99.90
33699;DHT22;20032;52.436;13.312;2023-04-24T03:05:16;11.70;99.90
33699;DHT22;20032;52.436;13.312;2023-04-24T03:07:41;11.80;99.90
33699;DHT22;20032;52.436;13.312;2023-04-24T03:10:07;11.80;99.90
33699;DHT22;20032;52.436;13.312;2023-04-24T03:12:33;11.80;99.90
33699;DHT22;20032;52.436;13.312;2023-04-24T03:14:59;11.80;99.90
33699;DHT22;20032;52.436;13.312;2023-04-24T03:17:25;12.00;99.90
33699;DHT22;20032;52.436;13.312;2023-04-24T03:19:52;12.10;99.90
33699;DHT22;20032;52.436;13.312;2023-04-24T03:22:18;12.20;99.90
33699;DHT22;20032;52.436;13.312;2023-04-24T03:24:43;12.30;99.90
33699;DHT22;20032;52.436;13.312;2023-04-24T03:27:09;12.30;99.90
33699;DHT22;20032;52.436;13.312;2023-04-24T03:29:35;12.40;99.90
33699;DHT22;20032;52.436;13.312;2023-04-24T03:32:00;12.30;99.90
33699;DHT22;20032;52.436;13.312;2023-04-24T03:34:26;12.40;99.90
33699;DHT22;20032;52.436;13.312;2023-04-24T03:36:51;12.40;99.90
33699;DHT22;20032;52.436;13.312;2023-04-24T03:39:17;12.40;99.90
33699;DHT22;20032;52.436;13.312;2023-04-24T03:41:43;12.50;99.90
33699;DHT22;20032;52.436;13.312;2023-04-24T03:44:08;12.40;99.90
33699;DHT22;20032;52.436;13.312;2023-04-24T03:46:35;12.40;99.90
33699;DHT22;20032;52.436;13.312;2023-04-24T03:49:01;12.40;99.90
33699;DHT22;20032;52.436;13.312;2023-04-24T03:51:26;12.50;99.90
33699;DHT22;20032;52.436;13.312;2023-04-24T03:53:53;12.50;99.90
33699;DHT22;20032;52.436;13.312;2023-04-24T03:56:19;12.50;99.90
33699;DHT22;20032;52.436;13.312;2023-04-24T03:58:45;12.50;99.90
33699;DHT22;20032;52.436;13.312;2023-04-24T04:01:10;12.60;99.90
33699;DHT22;20032;52.436;13.312;2023-04-24T04:03:36;12.60;99.90
33699;DHT22;20032;52.436;13.312;2023-04-24T04:06:02;12.60;99.90
33699;DHT22;20032;52.436;13.312;2023-04-24T04:08:27;12.50;99.90
33699;DHT22;20032;52.436;13.312;2023-04-24T04:10:53;12.50;99.90
33699;DHT22;20032;52.436;13.312;2023-04-24T04:13:18;12.50;99.90
33699;DHT22;20032;52.436;13.312;2023-04-24T04:15:44;12.60;99.90
33699;DHT22;20032;52.436;13.312;2023-04-24T04:18:09;12.60;99.90
33699;DHT22;20032;52.436;13.312;2023-04-24T04:20:35;12.60;99.90
33699;DHT22;20032;52.436;13.312;2023-04-24T04:23:00;12.50;99.90
33699;DHT22;20032;52.436;13.312;2023-04-24T04:25:26;12.50;99.90
33699;DHT22;20032;52.436;13.312;2023-04-24T04:27:51;12.60;99.90
33699;DHT22;20032;52.436;13.312;2023-04-24T04:30:17;12.60;99.90
33699;DHT22;20032;52.436;13.312;2023-04-24T04:32:43;12.60;99.90
33699;DHT22;20032;52.436;13.312;2023-04-24T04:35:09;12.60;99.90
33699;DHT22;20032;52.436;13.312;2023-04-24T04:37:35;12.60;99.90
33699;DHT22;20032;52.436;13.312;2023-04-24T04:40:01;12.70;99.90
33699;DHT22;20032;52.436;13.312;2023-04-24T04:42:31;12.70;99.90
33699;DHT22;20032;52.436;13.312;2023-04-24T04:44:57;12.60;99.90
33699;DHT22;20032;52.436;13.312;2023-04-24T04:47:23;12.60;99.90
33699;DHT22;20032;52.436;13.312;2023-04-24T04:49:49;12.60;99.90
33699;DHT22;20032;52.436;13.312;2023-04-24T04:52:14;12.60;99.90
33699;DHT22;20032;52.436;13.312;2023-04-24T04:54:41;12.60;99.90
33699;DHT22;20032;52.436;13.312;2023-04-24T04:57:07;12.70;99.90
33699;DHT22;20032;52.436;13.312;2023-04-24T04:59:33;12.70;99.90
33699;DHT22;20032;52.436;13.312;2023-04-24T05:01:58;12.50;99.90
33699;DHT22;20032;52.436;13.312;2023-04-24T05:04:24;12.60;99.90
33699;DHT22;20032;52.436;13.312;2023-04-24T05:06:49;12.60;99.90
33699;DHT22;20032;52.436;13.312;2023-04-24T05:09:16;12.70;99.90
33699;DHT22;20032;52.436;13.312;2023-04-24T05:11:41;12.70;99.90
33699;DHT22;20032;52.436;13.312;2023-04-24T05:14:07;12.70;99.90
33699;DHT22;20032;52.436;13.312;2023-04-24T05:16:33;12.70;99.90
33699;DHT22;20032;52.436;13.312;2023-04-24T05:18:58;12.70;99.90
33699;DHT22;20032;52.436;13.312;2023-04-24T05:21:24;12.70;99.90
33699;DHT22;20032;52.436;13.312;2023-04-24T05:23:49;12.70;99.90
33699;DHT22;20032;52.436;13.312;2023-04-24T05:26:17;12.80;99.90
33699;DHT22;20032;52.436;13.312;2023-04-24T05:28:43;12.80;99.90
33699;DHT22;20032;52.436;13.312;2023-04-24T05:31:08;12.90;99.90
33699;DHT22;20032;52.436;13.312;2023-04-24T05:33:34;12.90;99.90
33699;DHT22;20032;52.436;13.312;2023-04-24T05:35:59;12.80;99.90
33699;DHT22;20032;52.436;13.312;2023-04-24T05:38:26;12.90;99.90
33699;DHT22;20032;52.436;13.312;2023-04-24T05:40:53;12.80;99.90
33699;DHT22;20032;52.436;13.312;2023-04-24T05:43:19;12.90;99.90
33699;DHT22;20032;52.436;13.312;2023-04-24T05:45:45;12.90;99.90
33699;DHT22;20032;52.436;13.312;2023-04-24T05:48:11;13.00;99.90
33699;DHT22;20032;52.436;13.312;2023-04-24T05:50:36;12.90;99.90
33699;DHT22;20032;52.436;13.312;2023-04-24T05:53:02;13.00;99.90
33699;DHT22;20032;52.436;13.312;2023-04-24T05:55:27;13.00;99.90
33699;DHT22;20032;52.436;13.312;2023-04-24T05:57:53;13.00;99.90
33699;DHT22;20032;52.436;13.312;2023-04-24T06:00:19;13.10;99.90
33699;DHT22;20032;52.436;13.312;2023-04-24T06:02:46;13.00;99.90
33699;DHT22;20032;52.436;13.312;2023-04-24T06:05:11;13.00;99.90
33699;DHT22;20032;52.436;13.312;2023-04-24T06:07:37;13.10;99.90
33699;DHT22;20032;52.436;13.312;2023-04-24T06:10:03;13.10;99.90
33699;DHT22;20032;52.436;13.312;2023-04-24T06:12:28;13.20;99.90
33699;DHT22;20032;52.436;13.312;2023-04-24T06:14:54;13.20;99.90
33699;DHT22;20032;52.436;13.312;2023-04-24T06:17:21;13.10;99.90
33699;DHT22;20032;52.436;13.312;2023-04-24T06:19:46;13.10;99.90
33699;DHT22;20032;52.436;13.312;2023-04-24T06:22:12;13.20;99.90
33699;DHT22;20032;52.436;13.312;2023-04-24T06:24:39;13.30;99.90
33699;DHT22;20032;52.436;13.312;2023-04-24T06:27:05;13.30;99.90
33699;DHT22;20032;52.436;13.312;2023-04-24T06:29:31;13.40;99.90
33699;DHT22;20032;52.436;13.312;2023-04-24T06:31:56;13.50;99.90
33699;DHT22;20032;52.436;13.312;2023-04-24T06:34:22;13.60;99.90
33699;DHT22;20032;52.436;13.312;2023-04-24T06:36:47;13.70;99.90
33699;DHT22;20032;52.436;13.312;2023-04-24T06:39:13;13.80;99.90
33699;DHT22;20032;52.436;13.312;2023-04-24T06:41:38;13.90;99.90
33699;DHT22;20032;52.436;13.312;2023-04-24T06:44:05;14.10;99.90
33699;DHT22;20032;52.436;13.312;2023-04-24T06:46:31;14.20;99.90
33699;DHT22;20032;52.436;13.312;2023-04-24T06:48:57;14.20;99.90
33699;DHT22;20032;52.436;13.312;2023-04-24T06:51:24;14.10;99.90
33699;DHT22;20032;52.436;13.312;2023-04-24T06:53:52;14.10;99.90
33699;DHT22;20032;52.436;13.312;2023-04-24T06:56:18;14.10;99.90
33699;DHT22;20032;52.436;13.312;2023-04-24T06:58:44;14.10;99.90
33699;DHT22;20032;52.436;13.312;2023-04-24T07:01:10;14.20;99.90
33699;DHT22;20032;52.436;13.312;2023-04-24T07:03:36;14.20;99.90
33699;DHT22;20032;52.436;13.312;2023-04-24T07:06:01;14.30;99.90
33699;DHT22;20032;52.436;13.312;2023-04-24T07:08:28;14.30;99.90
33699;DHT22;20032;52.436;13.312;2023-04-24T07:10:56;14.50;99.90
33699;DHT22;20032;52.436;13.312;2023-04-24T07:13:22;14.60;99.90
33699;DHT22;20032;52.436;13.312;2023-04-24T07:15:48;14.70;99.90
33699;DHT22;20032;52.436;13.312;2023-04-24T07:18:16;14.70;99.90
33699;DHT22;20032;52.436;13.312;2023-04-24T07:20:41;14.70;99.90
33699;DHT22;20032;52.436;13.312;2023-04-24T07:23:07;14.80;99.90
33699;DHT22;20032;52.436;13.312;2023-04-24T07:25:33;14.70;99.90
33699;DHT22;20032;52.436;13.312;2023-04-24T07:27:58;14.80;99.90
33699;DHT22;20032;52.436;13.312;2023-04-24T07:30:25;14.70;99.90
33699;DHT22;20032;52.436;13.312;2023-04-24T07:32:51;14.80;99.90
33699;DHT22;20032;52.436;13.312;2023-04-24T07:35:16;15.00;99.90
33699;DHT22;20032;52.436;13.312;2023-04-24T07:37:42;15.20;99.90
33699;DHT22;20032;52.436;13.312;2023-04-24T07:40:13;15.30;99.90
33699;DHT22;20032;52.436;13.312;2023-04-24T07:42:38;15.50;99.90
33699;DHT22;20032;52.436;13.312;2023-04-24T07:45:05;15.60;99.90
33699;DHT22;20032;52.436;13.312;2023-04-24T07:47:31;15.40;99.90
33699;DHT22;20032;52.436;13.312;2023-04-24T07:49:57;15.50;99.90
33699;DHT22;20032;52.436;13.312;2023-04-24T07:52:23;15.50;99.90
33699;DHT22;20032;52.436;13.312;2023-04-24T07:54:49;15.60;99.90
33699;DHT22;20032;52.436;13.312;2023-04-24T07:57:15;15.70;99.90
33699;DHT22;20032;52.436;13.312;2023-04-24T07:59:41;15.80;99.90
33699;DHT22;20032;52.436;13.312;2023-04-24T08:02:06;15.80;99.90
33699;DHT22;20032;52.436;13.312;2023-04-24T08:04:32;16.00;99.90
33699;DHT22;20032;52.436;13.312;2023-04-24T08:06:58;16.00;99.90
33699;DHT22;20032;52.436;13.312;2023-04-24T08:09:23;16.30;99.90
33699;DHT22;20032;52.436;13.312;2023-04-24T08:11:49;16.10;99.90
33699;DHT22;20032;52.436;13.312;2023-04-24T08:14:16;16.30;99.90
33699;DHT22;20032;52.436;13.312;2023-04-24T08:16:41;16.30;99.90
33699;DHT22;20032;52.436;13.312;2023-04-24T08:19:07;16.20;99.90
33699;DHT22;20032;52.436;13.312;2023-04-24T08:21:33;16.20;99.90
33699;DHT22;20032;52.436;13.312;2023-04-24T08:24:00;16.20;99.90
33699;DHT22;20032;52.436;13.312;2023-04-24T08:26:30;16.10;99.90
33699;DHT22;20032;52.436;13.312;2023-04-24T08:28:55;16.10;99.90
33699;DHT22;20032;52.436;13.312;2023-04-24T08:31:22;16.10;99.90
33699;DHT22;20032;52.436;13.312;2023-04-24T08:33:50;16.30;99.90
33699;DHT22;20032;52.436;13.312;2023-04-24T08:36:15;16.40;99.90
33699;DHT22;20032;52.436;13.312;2023-04-24T08:38:42;16.40;99.90
33699;DHT22;20032;52.436;13.312;2023-04-24T08:41:08;16.40;99.90
33699;DHT22;20032;52.436;13.312;2023-04-24T08:43:35;16.40;99.90
33699;DHT22;20032;52.436;13.312;2023-04-24T08:46:04;16.50;99.90
33699;DHT22;20032;52.436;13.312;2023-04-24T08:48:29;16.60;99.90
33699;DHT22;20032;52.436;13.312;2023-04-24T08:50:56;16.80;99.90
33699;DHT22;20032;52.436;13.312;2023-04-24T08:53:24;16.90;99.90
33699;DHT22;20032;52.436;13.312;2023-04-24T08:55:50;16.80;99.90
33699;DHT22;20032;52.436;13.312;2023-04-24T08:58:17;16.50;99.90
33699;DHT22;20032;52.436;13.312;2023-04-24T09:00:43;16.40;99.90
33699;DHT22;20032;52.436;13.312;2023-04-24T09:03:15;16.50;99.90
33699;DHT22;20032;52.436;13.312;2023-04-24T09:05:43;16.60;99.90
33699;DHT22;20032;52.436;13.312;2023-04-24T09:08:11;16.50;99.90
33699;DHT22;20032;52.436;13.312;2023-04-24T09:10:40;16.60;99.90
33699;DHT22;20032;52.436;13.312;2023-04-24T09:13:06;16.60;99.90
33699;DHT22;20032;52.436;13.312;2023-04-24T09:15:34;16.60;99.90
33699;DHT22;20032;52.436;13.312;2023-04-24T09:18:00;16.40;99.90
33699;DHT22;20032;52.436;13.312;2023-04-24T09:20:26;16.30;99.90
33699;DHT22;20032;52.436;13.312;2023-04-24T09:22:54;16.30;99.90
33699;DHT22;20032;52.436;13.312;2023-04-24T09:25:21;16.50;99.90
33699;DHT22;20032;52.436;13.312;2023-04-24T09:27:46;16.50;99.90
33699;DHT22;20032;52.436;13.312;2023-04-24T09:30:12;16.50;99.90
33699;DHT22;20032;52.436;13.312;2023-04-24T09:32:38;16.60;99.90
33699;DHT22;20032;52.436;13.312;2023-04-24T09:35:12;16.70;99.90
33699;DHT22;20032;52.436;13.312;2023-04-24T09:37:41;16.60;99.90
33699;DHT22;20032;52.436;13.312;2023-04-24T09:40:22;16.60;99.90
33699;DHT22;20032;52.436;13.312;2023-04-24T09:42:53;16.60;99.90
33699;DHT22;20032;52.436;13.312;2023-04-24T09:45:20;16.70;99.90
33699;DHT22;20032;52.436;13.312;2023-04-24T09:47:45;16.80;99.90
33699;DHT22;20032;52.436;13.312;2023-04-24T09:50:14;16.70;99.90
33699;DHT22;20032;52.436;13.312;2023-04-24T09:52:41;16.70;99.90
33699;DHT22;20032;52.436;13.312;2023-04-24T09:55:25;16.70;99.90
33699;DHT22;20032;52.436;13.312;2023-04-24T09:57:53;16.80;99.90
33699;DHT22;20032;52.436;13.312;2023-04-24T10:00:23;16.90;99.90
33699;DHT22;20032;52.436;13.312;2023-04-24T10:02:50;16.90;99.90
33699;DHT22;20032;52.436;13.312;2023-04-24T10:05:17;17.20;99.90
33699;DHT22;20032;52.436;13.312;2023-04-24T10:07:43;17.60;99.90
33699;DHT22;20032;52.436;13.312;2023-04-24T10:10:09;17.90;99.90
33699;DHT22;20032;52.436;13.312;2023-04-24T10:12:34;17.90;99.90
33699;DHT22;20032;52.436;13.312;2023-04-24T10:15:01;17.80;99.90
33699;DHT22;20032;52.436;13.312;2023-04-24T10:17:28;18.00;99.90
33699;DHT22;20032;52.436;13.312;2023-04-24T10:19:55;18.20;99.90
33699;DHT22;20032;52.436;13.312;2023-04-24T10:22:21;17.70;99.90
33699;DHT22;20032;52.436;13.312;2023-04-24T10:24:49;17.40;99.90
33699;DHT22;20032;52.436;13.312;2023-04-24T10:27:15;17.40;99.90
33699;DHT22;20032;52.436;13.312;2023-04-24T10:29:41;17.20;99.90
33699;DHT22;20032;52.436;13.312;2023-04-24T10:32:08;17.00;99.90
33699;DHT22;20032;52.436;13.312;2023-04-24T10:34:35;16.90;99.90
33699;DHT22;20032;52.436;13.312;2023-04-24T10:37:02;16.80;99.90
33699;DHT22;20032;52.436;13.312;2023-04-24T10:39:28;16.60;99.90
33699;DHT22;20032;52.436;13.312;2023-04-24T10:41:55;16.40;99.90
33699;DHT22;20032;52.436;13.312;2023-04-24T10:44:23;16.50;99.90
33699;DHT22;20032;52.436;13.312;2023-04-24T10:46:53;16.30;99.90
33699;DHT22;20032;52.436;13.312;2023-04-24T10:49:28;16.20;99.90
33699;DHT22;20032;52.436;13.312;2023-04-24T10:52:00;16.10;99.90
33699;DHT22;20032;52.436;13.312;2023-04-24T10:54:28;16.10;99.90
33699;DHT22;20032;52.436;13.312;2023-04-24T10:59:49;17.50;99.90
33699;DHT22;20032;52.436;13.312;2023-04-24T11:02:17;17.90;99.90
33699;DHT22;20032;52.436;13.312;2023-04-24T11:04:43;18.20;99.90
33699;DHT22;20032;52.436;13.312;2023-04-24T11:07:10;18.70;99.90
33699;DHT22;20032;52.436;13.312;2023-04-24T11:09:37;19.00;99.90
33699;DHT22;20032;52.436;13.312;2023-04-24T11:12:08;19.00;99.90
33699;DHT22;20032;52.436;13.312;2023-04-24T11:17:32;18.70;99.90
33699;DHT22;20032;52.436;13.312;2023-04-24T11:20:04;18.30;99.90
33699;DHT22;20032;52.436;13.312;2023-04-24T11:22:34;18.00;99.90
33699;DHT22;20032;52.436;13.312;2023-04-24T11:25:01;17.90;99.90
33699;DHT22;20032;52.436;13.312;2023-04-24T11:27:30;18.00;99.90
33699;DHT22;20032;52.436;13.312;2023-04-24T11:32:43;18.00;99.90
33699;DHT22;20032;52.436;13.312;2023-04-24T11:35:24;18.40;99.90
33699;DHT22;20032;52.436;13.312;2023-04-24T11:37:52;19.00;99.90
33699;DHT22;20032;52.436;13.312;2023-04-24T11:40:19;18.70;99.90
33699;DHT22;20032;52.436;13.312;2023-04-24T11:42:51;18.30;99.90
33699;DHT22;20032;52.436;13.312;2023-04-24T11:45:23;17.80;99.90
33699;DHT22;20032;52.436;13.312;2023-04-24T11:47:48;17.80;99.90
33699;DHT22;20032;52.436;13.312;2023-04-24T11:50:17;17.60;99.90
33699;DHT22;20032;52.436;13.312;2023-04-24T11:52:45;17.60;99.90
33699;DHT22;20032;52.436;13.312;2023-04-24T11:57:44;17.60;99.90
33699;DHT22;20032;52.436;13.312;2023-04-24T12:00:19;17.60;99.90
33699;DHT22;20032;52.436;13.312;2023-04-24T12:02:46;17.80;99.90
33699;DHT22;20032;52.436;13.312;2023-04-24T12:07:46;18.50;99.90
33699;DHT22;20032;52.436;13.312;2023-04-24T12:10:12;19.20;99.90
33699;DHT22;20032;52.436;13.312;2023-04-24T12:12:38;20.10;99.90
33699;DHT22;20032;52.436;13.312;2023-04-24T12:15:08;20.60;99.90
33699;DHT22;20032;52.436;13.312;2023-04-24T12:17:34;20.50;99.90
33699;DHT22;20032;52.436;13.312;2023-04-24T12:20:04;20.10;99.90
33699;DHT22;20032;52.436;13.312;2023-04-24T12:22:46;19.50;98.20
33699;DHT22;20032;52.436;13.312;2023-04-24T12:25:14;19.20;98.80
33699;DHT22;20032;52.436;13.312;2023-04-24T12:27:40;19.00;99.20
33699;DHT22;20032;52.436;13.312;2023-04-24T12:30:12;18.70;99.20
33699;DHT22;20032;52.436;13.312;2023-04-24T12:32:42;19.10;99.30
33699;DHT22;20032;52.436;13.312;2023-04-24T12:35:09;19.20;98.80
33699;DHT22;20032;52.436;13.312;2023-04-24T12:37:34;19.20;98.20
33699;DHT22;20032;52.436;13.312;2023-04-24T12:40:05;19.50;97.00
33699;DHT22;20032;52.436;13.312;2023-04-24T12:42:32;20.10;95.80
33699;DHT22;20032;52.436;13.312;2023-04-24T12:45:00;21.00;93.30
33699;DHT22;20032;52.436;13.312;2023-04-24T12:47:27;20.50;93.60
33699;DHT22;20032;52.436;13.312;2023-04-24T12:49:53;19.90;93.20
33699;DHT22;20032;52.436;13.312;2023-04-24T12:52:19;19.50;94.20
33699;DHT22;20032;52.436;13.312;2023-04-24T12:54:45;19.40;94.00
33699;DHT22;20032;52.436;13.312;2023-04-24T12:57:11;19.80;93.60
33699;DHT22;20032;52.436;13.312;2023-04-24T12:59:36;19.50;93.40
33699;DHT22;20032;52.436;13.312;2023-04-24T13:02:03;19.40;92.20
33699;DHT22;20032;52.436;13.312;2023-04-24T13:04:28;19.60;91.70
33699;DHT22;20032;52.436;13.312;2023-04-24T13:06:54;20.30;91.50
33699;DHT22;20032;52.436;13.312;2023-04-24T13:09:19;21.40;90.70
33699;DHT22;20032;52.436;13.312;2023-04-24T13:11:45;22.40;87.60
33699;DHT22;20032;52.436;13.312;2023-04-24T13:14:10;22.50;86.20
33699;DHT22;20032;52.436;13.312;2023-04-24T13:16:36;23.30;83.10
33699;DHT22;20032;52.436;13.312;2023-04-24T13:19:02;22.60;81.70
33699;DHT22;20032;52.436;13.312;2023-04-24T13:21:29;22.10;82.80
33699;DHT22;20032;52.436;13.312;2023-04-24T13:23:55;22.10;81.10
33699;DHT22;20032;52.436;13.312;2023-04-24T13:26:21;22.70;80.20
33699;DHT22;20032;52.436;13.312;2023-04-24T13:28:47;23.00;77.70
33699;DHT22;20032;52.436;13.312;2023-04-24T13:31:12;22.70;76.40
33699;DHT22;20032;52.436;13.312;2023-04-24T13:33:39;21.60;78.30
33699;DHT22;20032;52.436;13.312;2023-04-24T13:36:05;21.90;79.70
33699;DHT22;20032;52.436;13.312;2023-04-24T13:38:31;21.40;80.00
33699;DHT22;20032;52.436;13.312;2023-04-24T13:40:56;21.30;80.80
33699;DHT22;20032;52.436;13.312;2023-04-24T13:43:22;21.50;79.50
33699;DHT22;20032;52.436;13.312;2023-04-24T13:45:47;21.40;76.90
33699;DHT22;20032;52.436;13.312;2023-04-24T13:48:13;21.30;77.80
33699;DHT22;20032;52.436;13.312;2023-04-24T13:50:41;21.20;79.40
33699;DHT22;20032;52.436;13.312;2023-04-24T13:53:07;20.30;81.70
33699;DHT22;20032;52.436;13.312;2023-04-24T13:55:32;19.80;83.30
33699;DHT22;20032;52.436;13.312;2023-04-24T13:57:58;19.60;83.80
33699;DHT22;20032;52.436;13.312;2023-04-24T14:00:23;19.50;84.50
33699;DHT22;20032;52.436;13.312;2023-04-24T14:02:49;19.60;84.80
33699;DHT22;20032;52.436;13.312;2023-04-24T14:05:15;19.50;84.80
33699;DHT22;20032;52.436;13.312;2023-04-24T14:07:41;19.30;85.10
33699;DHT22;20032;52.436;13.312;2023-04-24T14:10:07;19.30;84.50
33699;DHT22;20032;52.436;13.312;2023-04-24T14:12:33;19.00;85.90
33699;DHT22;20032;52.436;13.312;2023-04-24T14:14:58;19.10;85.90
33699;DHT22;20032;52.436;13.312;2023-04-24T14:17:24;19.30;84.30
33699;DHT22;20032;52.436;13.312;2023-04-24T14:19:49;19.60;82.10
33699;DHT22;20032;52.436;13.312;2023-04-24T14:22:17;19.80;81.90
33699;DHT22;20032;52.436;13.312;2023-04-24T14:24:42;19.40;82.00
33699;DHT22;20032;52.436;13.312;2023-04-24T14:27:08;19.20;83.70
33699;DHT22;20032;52.436;13.312;2023-04-24T14:29:33;18.80;85.00
33699;DHT22;20032;52.436;13.312;2023-04-24T14:31:59;19.80;84.10
33699;DHT22;20032;52.436;13.312;2023-04-24T14:34:24;20.50;82.10
33699;DHT22;20032;52.436;13.312;2023-04-24T14:36:50;21.40;81.70
33699;DHT22;20032;52.436;13.312;2023-04-24T14:39:15;21.60;79.20
33699;DHT22;20032;52.436;13.312;2023-04-24T14:41:41;21.60;79.90
33699;DHT22;20032;52.436;13.312;2023-04-24T14:44:06;21.60;79.30
33699;DHT22;20032;52.436;13.312;2023-04-24T14:46:32;21.50;80.60
33699;DHT22;20032;52.436;13.312;2023-04-24T14:48:57;21.10;80.20
33699;DHT22;20032;52.436;13.312;2023-04-24T14:51:23;20.40;81.80
33699;DHT22;20032;52.436;13.312;2023-04-24T14:53:49;20.00;83.10
33699;DHT22;20032;52.436;13.312;2023-04-24T14:56:15;19.30;84.10
33699;DHT22;20032;52.436;13.312;2023-04-24T14:58:40;18.70;85.60
33699;DHT22;20032;52.436;13.312;2023-04-24T15:01:06;18.50;87.90
33699;DHT22;20032;52.436;13.312;2023-04-24T15:03:31;19.10;87.00
33699;DHT22;20032;52.436;13.312;2023-04-24T15:05:57;19.40;86.40
33699;DHT22;20032;52.436;13.312;2023-04-24T15:08:22;20.20;84.10
33699;DHT22;20032;52.436;13.312;2023-04-24T15:10:49;20.70;82.10
33699;DHT22;20032;52.436;13.312;2023-04-24T15:13:14;20.60;81.40
33699;DHT22;20032;52.436;13.312;2023-04-24T15:15:40;20.50;80.70
33699;DHT22;20032;52.436;13.312;2023-04-24T15:18:08;20.40;80.10
33699;DHT22;20032;52.436;13.312;2023-04-24T15:20:34;19.70;82.30
33699;DHT22;20032;52.436;13.312;2023-04-24T15:23:00;19.10;83.90